Kremmling, Colorado
Current Conditions -  °F | °C
As of 2:35 PM on Saturday 22 Nov 2014 (Local Time) from K20V Reporting Station
Overcast Overcast  
Wind Chill: 43°   Ceiling: 11000
Heat Index: 43°   Visibility: 10mi
Dew Point: 14°   Wind: 0mph
Humidity: 31%   Direction: NA
Pressure: 29.8"   Gusts: NA
Location:  40.06°N, 106.39°W
Report Text: K20V 222135Z AUTO 00000KT 10SM SCT075 OVC110 06/M10 A2980 RMK AO2
Loading
Personal Weather Stations






























Interactive Weather Map New forecast layout! Learn more

10-Day Weather Forecast

Advertisements
Track Severe Weather on mobile